createdAt,value
2024-01-22T00:00:48.834Z,14.91
2024-01-22T00:03:17.429Z,14.90
2024-01-22T00:05:46.766Z,14.85
2024-01-22T00:08:14.566Z,14.82
2024-01-22T00:10:42.479Z,14.78
2024-01-22T00:13:10.150Z,14.76
2024-01-22T00:15:37.754Z,14.73
2024-01-22T00:18:06.166Z,14.74
2024-01-22T00:20:33.998Z,14.71
2024-01-22T00:23:03.820Z,14.65
2024-01-22T00:25:31.472Z,14.64
2024-01-22T00:27:59.183Z,14.64
2024-01-22T00:30:26.823Z,14.63
2024-01-22T00:32:54.562Z,14.58
2024-01-22T00:35:22.258Z,14.56
2024-01-22T00:37:49.919Z,14.56
2024-01-22T00:40:19.337Z,14.55
2024-01-22T00:42:47.057Z,14.54
2024-01-22T00:45:14.870Z,14.54
2024-01-22T00:47:42.775Z,14.52
2024-01-22T00:50:11.253Z,14.51
2024-01-22T00:52:38.896Z,14.48
2024-01-22T00:55:07.505Z,14.45
2024-01-22T00:57:38.504Z,14.41
2024-01-22T01:00:07.485Z,14.38
2024-01-22T01:02:35.215Z,14.33
2024-01-22T01:05:02.972Z,14.30
2024-01-22T01:07:30.653Z,14.26
2024-01-22T01:09:58.302Z,14.23
2024-01-22T01:12:26.036Z,14.19
2024-01-22T01:14:55.180Z,14.17
2024-01-22T01:17:22.880Z,14.12
2024-01-22T01:19:50.736Z,14.10
2024-01-22T01:22:18.571Z,14.09
2024-01-22T01:24:46.271Z,14.07
2024-01-22T01:27:14.634Z,14.04
2024-01-22T01:29:42.326Z,14.02
2024-01-22T01:32:11.448Z,14.01
2024-01-22T01:34:39.221Z,13.97
2024-01-22T01:37:07.413Z,13.96
2024-01-22T01:39:35.129Z,13.93
2024-01-22T01:42:02.892Z,13.91
2024-01-22T01:44:50.821Z,13.88
2024-01-22T01:47:20.571Z,13.86
2024-01-22T01:49:49.224Z,13.83
2024-01-22T01:52:17.996Z,13.80
2024-01-22T01:54:47.708Z,13.78
2024-01-22T01:57:15.826Z,13.76
2024-01-22T01:59:45.010Z,13.77
2024-01-22T02:02:12.728Z,13.71
2024-01-22T02:04:41.872Z,13.72
2024-01-22T02:07:09.642Z,13.70
2024-01-22T02:09:48.181Z,13.69
2024-01-22T02:12:16.948Z,13.67
2024-01-22T02:14:44.918Z,13.65
2024-01-22T02:17:12.628Z,13.63
2024-01-22T02:19:41.862Z,13.59
2024-01-22T02:22:10.040Z,13.58
2024-01-22T02:24:40.851Z,13.55
2024-01-22T02:27:08.576Z,13.54
2024-01-22T02:29:36.302Z,13.52
2024-01-22T02:32:04.511Z,13.50
2024-01-22T02:34:32.280Z,13.48
2024-01-22T02:37:00.004Z,13.48
2024-01-22T02:39:27.684Z,13.45
2024-01-22T02:41:57.556Z,13.42
2024-01-22T02:44:25.242Z,13.41
2024-01-22T02:46:54.557Z,13.41
2024-01-22T02:49:22.558Z,13.36
2024-01-22T02:51:50.295Z,13.34
2024-01-22T02:54:18.141Z,13.33
2024-01-22T02:56:46.010Z,13.30
2024-01-22T02:59:15.205Z,13.28
2024-01-22T03:01:42.880Z,13.26
2024-01-22T03:04:11.519Z,13.24
2024-01-22T03:06:39.809Z,13.24
2024-01-22T03:09:08.515Z,13.22
2024-01-22T03:11:37.127Z,13.19
2024-01-22T03:14:04.812Z,13.19
2024-01-22T03:16:33.835Z,13.18
2024-01-22T03:19:02.057Z,13.16
2024-01-22T03:21:29.761Z,13.13
2024-01-22T03:23:57.570Z,13.11
2024-01-22T03:26:25.436Z,13.09
2024-01-22T03:28:53.741Z,13.07
2024-01-22T03:31:22.988Z,13.02
2024-01-22T03:33:52.176Z,13.01
2024-01-22T03:36:20.497Z,13.00
2024-01-22T03:38:50.050Z,13.00
2024-01-22T03:41:17.861Z,12.98
2024-01-22T03:43:46.136Z,12.94
2024-01-22T03:46:15.735Z,12.92
2024-01-22T03:48:43.816Z,12.92
2024-01-22T03:51:13.203Z,12.88
2024-01-22T03:53:40.940Z,12.87
2024-01-22T03:56:09.151Z,12.82
2024-01-22T03:58:37.171Z,12.82
2024-01-22T04:01:09.612Z,12.79
2024-01-22T04:03:37.859Z,12.78
2024-01-22T04:06:07.282Z,12.77
2024-01-22T04:08:36.358Z,12.77
2024-01-22T04:11:04.083Z,12.75
2024-01-22T04:13:35.331Z,12.73
2024-01-22T04:16:03.653Z,12.72
2024-01-22T04:18:31.594Z,12.69
2024-01-22T04:20:59.380Z,12.68
2024-01-22T04:23:28.372Z,12.65
2024-01-22T04:25:57.390Z,12.64
2024-01-22T04:28:25.316Z,12.61
2024-01-22T04:30:53.021Z,12.63
2024-01-22T04:33:20.797Z,12.60
2024-01-22T04:35:49.402Z,12.59
2024-01-22T04:38:17.318Z,12.57
2024-01-22T04:40:45.039Z,12.55
2024-01-22T04:43:14.068Z,12.54
2024-01-22T04:45:41.865Z,12.53
2024-01-22T04:48:09.584Z,12.54
2024-01-22T04:50:37.492Z,12.59
2024-01-22T04:53:05.589Z,12.63
2024-01-22T04:55:35.543Z,12.74
2024-01-22T04:58:05.704Z,12.84
2024-01-22T05:00:34.814Z,12.91
2024-01-22T05:03:06.077Z,13.00
2024-01-22T05:05:36.772Z,13.15
2024-01-22T05:08:04.706Z,13.24
2024-01-22T05:10:32.391Z,13.31
2024-01-22T05:13:00.041Z,13.33
2024-01-22T05:15:27.778Z,13.42
2024-01-22T05:17:56.934Z,13.49
2024-01-22T05:20:24.791Z,13.57
2024-01-22T05:22:52.427Z,13.60
2024-01-22T05:25:20.650Z,13.64
2024-01-22T05:27:49.262Z,13.71
2024-01-22T05:30:17.068Z,13.75
2024-01-22T05:32:44.941Z,13.77
2024-01-22T05:35:14.541Z,13.83
2024-01-22T05:37:42.245Z,13.82
2024-01-22T05:40:12.166Z,13.85
2024-01-22T05:42:39.829Z,13.89
2024-01-22T05:45:09.716Z,13.87
2024-01-22T05:47:37.517Z,13.86
2024-01-22T05:50:06.270Z,13.94
2024-01-22T05:52:35.308Z,13.90
2024-01-22T05:55:03.102Z,13.93
2024-01-22T05:57:30.742Z,13.96
2024-01-22T05:59:58.495Z,13.96
2024-01-22T06:02:26.398Z,13.97
2024-01-22T06:04:54.117Z,13.99
2024-01-22T06:07:21.961Z,14.03
2024-01-22T06:09:58.656Z,14.04
2024-01-22T06:12:29.771Z,14.03
2024-01-22T06:14:58.761Z,14.02
2024-01-22T06:17:31.992Z,14.02
2024-01-22T06:20:01.481Z,14.04
2024-01-22T06:22:29.498Z,14.07
2024-01-22T06:24:58.527Z,14.05
2024-01-22T06:27:26.301Z,14.02
2024-01-22T06:29:54.765Z,13.99
2024-01-22T06:32:22.414Z,14.03
2024-01-22T06:34:50.300Z,14.03
2024-01-22T06:37:18.214Z,14.04
2024-01-22T06:39:46.554Z,14.01
2024-01-22T06:42:22.936Z,14.04
2024-01-22T06:44:55.650Z,14.05
2024-01-22T06:47:23.445Z,14.07
2024-01-22T06:49:51.188Z,14.00
2024-01-22T06:52:19.574Z,14.01
2024-01-22T06:54:47.234Z,13.99
2024-01-22T06:57:16.277Z,13.95
2024-01-22T06:59:43.977Z,13.96
2024-01-22T07:02:11.733Z,13.94
2024-01-22T07:04:39.371Z,13.88
2024-01-22T07:07:07.056Z,13.89
2024-01-22T07:09:34.713Z,13.88
2024-01-22T07:12:02.477Z,13.85
2024-01-22T07:14:31.459Z,13.83
2024-01-22T07:16:59.170Z,13.83
2024-01-22T07:19:27.190Z,13.85
2024-01-22T07:21:55.285Z,13.85
2024-01-22T07:24:23.112Z,13.84
2024-01-22T07:26:50.916Z,13.81
2024-01-22T07:29:18.634Z,13.84
2024-01-22T07:31:47.685Z,13.82
2024-01-22T07:34:15.501Z,13.81
2024-01-22T07:36:43.621Z,13.82
2024-01-22T07:39:12.374Z,13.78
2024-01-22T07:41:40.317Z,13.79
2024-01-22T07:44:08.422Z,13.75
2024-01-22T07:46:36.453Z,13.74
2024-01-22T07:49:05.725Z,13.70
2024-01-22T07:51:33.562Z,13.71
2024-01-22T07:54:01.313Z,13.74
2024-01-22T07:56:29.227Z,13.71
2024-01-22T07:58:56.893Z,13.66
2024-01-22T08:01:24.818Z,13.64
2024-01-22T08:03:52.590Z,13.65
2024-01-22T08:06:21.751Z,13.64
2024-01-22T08:08:49.925Z,13.66
2024-01-22T08:11:19.446Z,13.67
2024-01-22T08:13:47.111Z,13.63
2024-01-22T08:16:14.874Z,13.62
2024-01-22T08:18:42.686Z,13.64
2024-01-22T08:21:10.496Z,13.63
2024-01-22T08:23:39.500Z,13.63
2024-01-22T08:26:08.083Z,13.62
2024-01-22T08:28:35.838Z,13.64
2024-01-22T08:31:03.829Z,13.65
2024-01-22T08:33:31.818Z,13.65
2024-01-22T08:35:59.704Z,13.62
2024-01-22T08:38:27.530Z,13.62
2024-01-22T08:40:56.536Z,13.59
2024-01-22T08:43:24.163Z,13.55
2024-01-22T08:45:51.097Z,13.55
2024-01-22T08:48:19.752Z,13.52
2024-01-22T08:50:47.846Z,13.52
2024-01-22T08:53:15.771Z,13.54
2024-01-22T08:55:43.538Z,13.50
2024-01-22T08:58:13.275Z,13.50
2024-01-22T09:00:41.259Z,13.52
2024-01-22T09:03:09.011Z,13.51
2024-01-22T09:05:36.719Z,13.50
2024-01-22T09:08:04.684Z,13.54
2024-01-22T09:10:32.382Z,13.57
2024-01-22T09:13:00.058Z,13.53
2024-01-22T09:15:29.250Z,13.55
2024-01-22T09:17:57.356Z,13.60
2024-01-22T09:20:25.164Z,13.64
2024-01-22T09:22:52.838Z,13.65
2024-01-22T09:25:21.346Z,13.64
2024-01-22T09:27:49.842Z,13.62
2024-01-22T09:30:19.582Z,13.63
2024-01-22T09:32:49.435Z,13.61
2024-01-22T09:35:17.378Z,13.62
2024-01-22T09:37:45.048Z,13.60
2024-01-22T09:40:19.673Z,13.60
2024-01-22T09:42:54.245Z,13.61
2024-01-22T09:45:22.099Z,13.64
2024-01-22T09:47:51.394Z,13.67
2024-01-22T09:50:19.220Z,13.69
2024-01-22T09:52:48.014Z,13.74
2024-01-22T09:55:16.067Z,13.76
2024-01-22T09:57:46.091Z,13.81
2024-01-22T10:00:17.057Z,13.85
2024-01-22T10:02:45.047Z,13.94
2024-01-22T10:05:15.047Z,13.98
2024-01-22T10:07:42.737Z,14.06
2024-01-22T10:10:10.891Z,14.12
2024-01-22T10:13:04.957Z,14.15
2024-01-22T10:15:33.629Z,14.17
2024-01-22T10:18:12.883Z,14.21
2024-01-22T10:20:43.852Z,14.20
2024-01-22T10:23:12.433Z,14.27
2024-01-22T10:25:40.475Z,14.30
2024-01-22T10:28:13.962Z,14.35
2024-01-22T10:30:42.736Z,14.37
2024-01-22T10:33:12.614Z,14.37
2024-01-22T10:35:41.837Z,14.37
2024-01-22T10:38:10.866Z,14.34
2024-01-22T10:40:39.030Z,14.32
2024-01-22T10:43:19.618Z,14.35
2024-01-22T10:45:48.952Z,14.37
2024-01-22T10:48:24.422Z,14.38
2024-01-22T10:51:04.429Z,14.42
2024-01-22T10:53:34.012Z,14.44
2024-01-22T10:56:03.717Z,14.41
2024-01-22T10:58:38.520Z,14.37
2024-01-22T11:01:13.549Z,14.39
2024-01-22T11:03:46.642Z,14.39
2024-01-22T11:06:19.760Z,14.39
2024-01-22T11:08:50.835Z,14.41
2024-01-22T11:11:21.590Z,14.41
2024-01-22T11:13:52.239Z,14.42
2024-01-22T11:16:20.727Z,14.41
2024-01-22T11:18:59.136Z,14.34
2024-01-22T11:21:35.931Z,14.32
2024-01-22T11:24:11.302Z,14.27
2024-01-22T11:26:43.600Z,14.23
2024-01-22T11:29:15.166Z,14.23
2024-01-22T11:31:43.726Z,14.22
2024-01-22T11:34:13.415Z,14.22
2024-01-22T11:36:57.843Z,14.17
2024-01-22T11:39:44.380Z,14.19
2024-01-22T11:42:27.514Z,14.18
2024-01-22T11:44:56.048Z,14.19
2024-01-22T11:47:25.341Z,14.20
2024-01-22T11:50:02.024Z,14.15
2024-01-22T11:52:34.734Z,14.14
2024-01-22T11:55:03.702Z,14.16
2024-01-22T11:57:33.611Z,14.18
2024-01-22T12:00:02.528Z,14.16
2024-01-22T12:02:30.224Z,14.18
2024-01-22T12:05:05.167Z,14.21
2024-01-22T12:07:35.478Z,14.24
2024-01-22T12:10:03.860Z,14.25
2024-01-22T12:12:31.868Z,14.24
2024-01-22T12:15:00.148Z,14.27
2024-01-22T12:17:30.790Z,14.24
2024-01-22T12:20:01.534Z,14.23
2024-01-22T12:22:29.788Z,14.19
2024-01-22T12:25:06.407Z,14.16
2024-01-22T12:27:34.385Z,14.17
2024-01-22T12:30:06.852Z,14.14
2024-01-22T12:32:36.406Z,14.13
2024-01-22T12:35:05.273Z,14.17
2024-01-22T12:37:35.337Z,14.14
2024-01-22T12:40:18.648Z,14.16
2024-01-22T12:42:48.240Z,14.21
2024-01-22T12:45:21.373Z,14.19
2024-01-22T12:47:50.547Z,14.18
2024-01-22T12:50:20.119Z,14.15
2024-01-22T12:52:48.874Z,14.19
2024-01-22T12:55:18.234Z,14.24
2024-01-22T12:57:46.578Z,14.27
2024-01-22T13:00:17.272Z,14.33
2024-01-22T13:02:45.428Z,14.37
2024-01-22T13:05:14.085Z,14.41
2024-01-22T13:07:41.809Z,14.48
2024-01-22T13:10:10.130Z,14.49
2024-01-22T13:12:38.696Z,14.51
2024-01-22T13:15:08.624Z,14.55
2024-01-22T13:17:36.589Z,14.55
2024-01-22T13:20:07.452Z,14.56
2024-01-22T13:22:36.058Z,14.54
2024-01-22T13:25:05.884Z,14.57
2024-01-22T13:27:37.177Z,14.58
2024-01-22T13:30:08.227Z,14.57
2024-01-22T13:32:36.221Z,14.57
2024-01-22T13:35:04.390Z,14.55
2024-01-22T13:37:32.110Z,14.55
2024-01-22T13:40:00.003Z,14.54
2024-01-22T13:42:27.772Z,14.53
2024-01-22T13:44:55.473Z,14.55
2024-01-22T13:47:33.253Z,14.56
2024-01-22T13:50:06.672Z,14.56
2024-01-22T13:52:35.972Z,14.56
2024-01-22T13:55:05.751Z,14.55
2024-01-22T13:57:33.604Z,14.56
2024-01-22T14:00:01.763Z,14.57
2024-01-22T14:02:31.094Z,14.57
2024-01-22T14:04:58.831Z,14.57
2024-01-22T14:07:26.439Z,14.53
2024-01-22T14:09:54.325Z,14.55
2024-01-22T14:12:22.331Z,14.55
2024-01-22T14:14:50.159Z,14.51
2024-01-22T14:17:18.065Z,14.52
2024-01-22T14:19:47.837Z,14.50
2024-01-22T14:22:15.587Z,14.50
2024-01-22T14:24:43.287Z,14.48
2024-01-22T14:27:11.313Z,14.47
2024-01-22T14:29:39.025Z,14.47
2024-01-22T14:32:07.894Z,14.46
2024-01-22T14:34:37.004Z,14.46
2024-01-22T14:37:06.472Z,14.44
2024-01-22T14:39:35.108Z,14.47
2024-01-22T14:42:02.843Z,14.60
2024-01-22T14:44:30.638Z,14.71
2024-01-22T14:46:58.305Z,14.82
2024-01-22T14:49:26.192Z,14.91
2024-01-22T14:51:53.919Z,15.04
2024-01-22T14:54:23.178Z,15.20
2024-01-22T14:56:51.092Z,15.33
2024-01-22T14:59:20.264Z,15.49
2024-01-22T15:01:48.045Z,15.49
2024-01-22T15:04:16.154Z,15.60
2024-01-22T15:06:46.917Z,15.62
2024-01-22T15:09:17.407Z,15.77
2024-01-22T15:11:46.563Z,15.86
2024-01-22T15:14:16.747Z,15.90
2024-01-22T15:16:47.344Z,15.92
2024-01-22T15:19:16.158Z,15.93
2024-01-22T15:21:44.597Z,16.02
2024-01-22T15:24:14.641Z,16.10
2024-01-22T15:26:42.711Z,16.12
2024-01-22T15:29:11.786Z,16.17
2024-01-22T15:31:39.825Z,16.22
2024-01-22T15:34:07.634Z,16.25
2024-01-22T15:36:35.577Z,16.27
2024-01-22T15:39:05.312Z,16.32
2024-01-22T15:41:34.314Z,16.37
2024-01-22T15:44:05.344Z,16.40
2024-01-22T15:46:34.715Z,16.44
2024-01-22T15:49:02.650Z,16.56
2024-01-22T15:51:30.531Z,16.61
2024-01-22T15:53:58.337Z,16.62
2024-01-22T15:56:26.013Z,16.61
2024-01-22T15:58:54.011Z,16.60
2024-01-22T16:01:24.357Z,16.64
2024-01-22T16:03:56.124Z,16.62
2024-01-22T16:06:24.748Z,16.67
2024-01-22T16:08:52.952Z,16.69
2024-01-22T16:11:20.768Z,16.70
2024-01-22T16:13:49.831Z,16.74
2024-01-22T16:16:18.472Z,16.71
2024-01-22T16:18:47.061Z,16.63
2024-01-22T16:21:17.533Z,16.72
2024-01-22T16:23:45.979Z,16.71
2024-01-22T16:26:14.083Z,16.68
2024-01-22T16:28:42.629Z,16.67
2024-01-22T16:31:10.461Z,16.64
2024-01-22T16:33:38.839Z,16.61
2024-01-22T16:36:08.692Z,16.57
2024-01-22T16:38:40.322Z,16.57
2024-01-22T16:41:08.161Z,16.57
2024-01-22T16:43:36.122Z,16.52
2024-01-22T16:46:03.945Z,16.47
2024-01-22T16:48:31.772Z,16.44
2024-01-22T16:50:59.604Z,16.44
2024-01-22T16:53:27.276Z,16.44
2024-01-22T16:55:56.314Z,16.38
2024-01-22T16:58:25.232Z,16.38
2024-01-22T17:00:52.983Z,16.42
2024-01-22T17:03:20.664Z,16.42
2024-01-22T17:05:48.504Z,16.52
2024-01-22T17:08:16.183Z,16.55
2024-01-22T17:10:44.043Z,16.57
2024-01-22T17:13:13.449Z,16.54
2024-01-22T17:15:41.126Z,16.58
2024-01-22T17:18:09.724Z,16.64
2024-01-22T17:20:38.202Z,16.63
2024-01-22T17:23:06.715Z,16.70
2024-01-22T17:25:34.889Z,16.72
2024-01-22T17:28:03.007Z,16.72
2024-01-22T17:30:32.575Z,16.82
2024-01-22T17:33:01.518Z,16.87
2024-01-22T17:35:29.779Z,16.93
2024-01-22T17:37:58.817Z,16.97
2024-01-22T17:40:26.778Z,17.02
2024-01-22T17:42:54.532Z,17.06
2024-01-22T17:45:22.263Z,17.10
2024-01-22T17:47:51.324Z,17.13
2024-01-22T17:50:19.726Z,17.11
2024-01-22T17:52:47.490Z,17.17
2024-01-22T17:55:15.276Z,17.19
2024-01-22T17:57:44.078Z,17.22
2024-01-22T18:00:12.805Z,17.30
2024-01-22T18:02:40.930Z,17.32
2024-01-22T18:05:11.809Z,17.34
2024-01-22T18:07:39.547Z,17.38
2024-01-22T18:10:07.896Z,17.38
2024-01-22T18:12:35.701Z,17.43
2024-01-22T18:15:04.149Z,17.42
2024-01-22T18:17:31.928Z,17.44
2024-01-22T18:19:59.597Z,17.45
2024-01-22T18:22:28.631Z,17.42
2024-01-22T18:24:56.276Z,17.41
2024-01-22T18:27:24.018Z,17.41
2024-01-22T18:29:51.858Z,17.36
2024-01-22T18:32:19.578Z,17.37
2024-01-22T18:34:47.274Z,17.37
2024-01-22T18:37:16.454Z,17.39
2024-01-22T18:39:45.602Z,17.36
2024-01-22T18:42:13.943Z,17.32
2024-01-22T18:44:42.766Z,17.30
2024-01-22T18:47:10.834Z,17.28
2024-01-22T18:49:39.351Z,17.25
2024-01-22T18:52:07.494Z,17.24
2024-01-22T18:54:35.264Z,17.23
2024-01-22T18:57:04.337Z,17.17
2024-01-22T18:59:31.997Z,17.15
2024-01-22T19:01:59.779Z,17.14
2024-01-22T19:04:27.427Z,17.13
2024-01-22T19:06:55.193Z,17.09
2024-01-22T19:09:22.948Z,17.05
2024-01-22T19:11:50.778Z,17.04
2024-01-22T19:14:20.171Z,17.00
2024-01-22T19:16:48.838Z,16.98
2024-01-22T19:19:16.704Z,16.97
2024-01-22T19:21:44.413Z,16.96
2024-01-22T19:24:12.107Z,16.98
2024-01-22T19:26:40.700Z,17.00
2024-01-22T19:29:08.524Z,17.00
2024-01-22T19:31:44.038Z,16.99
2024-01-22T19:34:12.080Z,16.96
2024-01-22T19:36:40.003Z,16.97
2024-01-22T19:39:07.776Z,16.94
2024-01-22T19:41:35.594Z,16.93
2024-01-22T19:44:03.201Z,16.91
2024-01-22T19:46:30.884Z,16.90
2024-01-22T19:49:00.016Z,16.88
2024-01-22T19:51:27.832Z,16.86
2024-01-22T19:53:55.621Z,16.86
2024-01-22T19:56:24.306Z,16.83
2024-01-22T19:58:52.097Z,16.80
2024-01-22T20:01:20.056Z,16.80
2024-01-22T20:03:47.852Z,16.76
2024-01-22T20:06:17.023Z,16.73
2024-01-22T20:08:44.702Z,16.72
2024-01-22T20:11:12.471Z,16.69
2024-01-22T20:13:40.153Z,16.68
2024-01-22T20:16:08.542Z,16.68
2024-01-22T20:18:37.727Z,16.66
2024-01-22T20:21:06.248Z,16.65
2024-01-22T20:23:35.461Z,16.62
2024-01-22T20:26:04.359Z,16.61
2024-01-22T20:28:32.088Z,16.61
2024-01-22T20:30:59.909Z,16.58
2024-01-22T20:33:27.774Z,16.58
2024-01-22T20:35:55.583Z,16.55
2024-01-22T20:38:23.396Z,16.54
2024-01-22T20:40:52.393Z,16.50
2024-01-22T20:43:20.054Z,16.53
2024-01-22T20:45:48.131Z,16.58
2024-01-22T20:48:16.052Z,16.67
2024-01-22T20:50:44.560Z,16.71
2024-01-22T20:53:12.837Z,16.82
2024-01-22T20:55:40.817Z,16.91
2024-01-22T20:58:11.128Z,17.02
2024-01-22T21:00:38.983Z,17.14
2024-01-22T21:03:08.096Z,17.22
2024-01-22T21:05:35.809Z,17.30
2024-01-22T21:08:03.658Z,17.39
2024-01-22T21:10:31.357Z,17.43
2024-01-22T21:12:59.169Z,17.50
2024-01-22T21:15:28.424Z,17.54
2024-01-22T21:17:56.279Z,17.52
2024-01-22T21:20:24.170Z,17.61
2024-01-22T21:22:51.938Z,17.62
2024-01-22T21:25:19.964Z,17.65
2024-01-22T21:27:47.736Z,17.69
2024-01-22T21:30:15.692Z,17.73
2024-01-22T21:32:44.803Z,17.70
2024-01-22T21:35:12.541Z,17.72
2024-01-22T21:37:40.414Z,17.77
2024-01-22T21:40:11.477Z,17.76
2024-01-22T21:42:39.220Z,17.74
2024-01-22T21:45:07.743Z,17.75
2024-01-22T21:47:37.112Z,17.70
2024-01-22T21:50:07.541Z,17.68
2024-01-22T21:52:35.178Z,17.68
2024-01-22T21:55:04.112Z,17.71
2024-01-22T21:57:36.030Z,17.68
2024-01-22T22:00:06.593Z,17.68
2024-01-22T22:02:35.000Z,17.66
2024-01-22T22:05:02.827Z,17.62
2024-01-22T22:07:31.830Z,17.60
2024-01-22T22:09:59.734Z,17.61
2024-01-22T22:12:28.060Z,17.58
2024-01-22T22:14:56.164Z,17.56
2024-01-22T22:17:24.047Z,17.55
2024-01-22T22:19:51.868Z,17.52
2024-01-22T22:22:20.384Z,17.51
2024-01-22T22:24:49.431Z,17.54
2024-01-22T22:27:17.271Z,17.50
2024-01-22T22:29:45.015Z,17.48
2024-01-22T22:32:12.662Z,17.42
2024-01-22T22:34:40.472Z,17.41
2024-01-22T22:37:08.739Z,17.41
2024-01-22T22:39:36.485Z,17.39
2024-01-22T22:42:05.795Z,17.38
2024-01-22T22:44:33.871Z,17.36
2024-01-22T22:47:01.584Z,17.36
2024-01-22T22:49:29.399Z,17.33
2024-01-22T22:51:57.151Z,17.31
2024-01-22T22:54:24.818Z,17.32
2024-01-22T22:56:53.533Z,17.31
2024-01-22T22:59:22.605Z,17.30
2024-01-22T23:01:50.327Z,17.27
2024-01-22T23:04:18.249Z,17.27
2024-01-22T23:06:46.065Z,17.27
2024-01-22T23:09:15.273Z,17.24
2024-01-22T23:11:43.996Z,17.20
2024-01-22T23:14:11.732Z,17.20
2024-01-22T23:16:40.764Z,17.18
2024-01-22T23:19:08.663Z,17.16
2024-01-22T23:21:36.432Z,17.16
2024-01-22T23:24:04.530Z,17.13
2024-01-22T23:26:32.240Z,17.13
2024-01-22T23:28:59.878Z,17.11
2024-01-22T23:31:27.766Z,17.09
2024-01-22T23:33:57.610Z,17.08
2024-01-22T23:36:29.080Z,17.05
2024-01-22T23:38:56.781Z,17.05
2024-01-22T23:41:25.405Z,17.02
2024-01-22T23:43:53.371Z,17.00
2024-01-22T23:46:21.332Z,16.95
2024-01-22T23:48:49.236Z,16.95
2024-01-22T23:51:18.493Z,16.93
2024-01-22T23:53:46.518Z,16.89
2024-01-22T23:56:14.187Z,16.87
2024-01-22T23:58:41.932Z,16.84
